createdAt,value
2017-04-29T00:02:13.572Z,27.26
2017-04-29T00:04:41.127Z,25.04
2017-04-29T00:07:08.647Z,27.32
2017-04-29T00:09:35.467Z,25.08
2017-04-29T00:12:02.251Z,27.10
2017-04-29T00:14:29.087Z,25.24
2017-04-29T00:16:55.916Z,29.68
2017-04-29T00:19:22.716Z,26.16
2017-04-29T00:21:49.540Z,24.46
2017-04-29T00:24:17.096Z,26.12
2017-04-29T00:26:43.915Z,26.98
2017-04-29T00:29:11.470Z,27.32
2017-04-29T00:31:38.299Z,27.78
2017-04-29T00:34:05.084Z,26.72
2017-04-29T00:36:31.926Z,27.54
2017-04-29T00:38:58.704Z,28.50
2017-04-29T00:41:25.541Z,26.90
2017-04-29T00:43:52.330Z,27.64
2017-04-29T00:46:19.846Z,30.10
2017-04-29T00:48:46.719Z,28.42
2017-04-29T00:51:13.509Z,29.58
2017-04-29T00:53:40.292Z,28.76
2017-04-29T00:56:07.118Z,28.12
2017-04-29T00:58:33.895Z,29.50
2017-04-29T01:01:01.419Z,30.44
2017-04-29T01:03:28.276Z,30.52
2017-04-29T01:05:55.837Z,32.76
2017-04-29T01:08:22.685Z,29.70
2017-04-29T01:10:49.472Z,31.30
2017-04-29T01:13:17.019Z,34.28
2017-04-29T01:15:44.543Z,30.32
2017-04-29T01:18:11.372Z,31.18
2017-04-29T01:20:38.152Z,32.90
2017-04-29T01:23:04.927Z,33.16
2017-04-29T01:25:31.741Z,30.26
2017-04-29T01:27:58.543Z,32.78
2017-04-29T01:30:25.391Z,33.92
2017-04-29T01:32:52.176Z,32.90
2017-04-29T01:35:18.999Z,37.08
2017-04-29T01:37:45.775Z,33.68
2017-04-29T01:40:12.561Z,29.12
2017-04-29T01:42:43.362Z,30.40
2017-04-29T01:45:10.924Z,30.16
2017-04-29T01:47:37.731Z,32.56
2017-04-29T01:50:05.361Z,32.26
2017-04-29T01:52:32.143Z,32.62
2017-04-29T01:54:58.976Z,31.50
2017-04-29T01:57:25.811Z,30.28
2017-04-29T01:59:52.597Z,29.52
2017-04-29T02:02:20.159Z,29.34
2017-04-29T02:04:46.932Z,32.14
2017-04-29T02:07:13.747Z,29.70
2017-04-29T02:09:40.531Z,33.68
2017-04-29T02:12:07.309Z,35.84
2017-04-29T02:14:34.144Z,33.30
2017-04-29T02:17:00.931Z,34.02
2017-04-29T02:19:27.754Z,33.38
2017-04-29T02:21:54.547Z,33.86
2017-04-29T02:24:22.124Z,30.82
2017-04-29T02:26:48.918Z,32.90
2017-04-29T02:29:15.735Z,31.44
2017-04-29T02:31:42.564Z,30.42
2017-04-29T02:34:09.338Z,30.40
2017-04-29T02:36:36.146Z,32.04
2017-04-29T02:39:03.711Z,31.48
2017-04-29T02:41:30.501Z,29.94
2017-04-29T02:43:58.039Z,29.58
2017-04-29T02:46:24.919Z,29.36
2017-04-29T02:48:51.744Z,30.64
2017-04-29T02:51:18.528Z,31.90
2017-04-29T02:53:45.355Z,29.72
2017-04-29T02:56:12.139Z,30.64
2017-04-29T02:58:38.991Z,31.22
2017-04-29T03:01:05.771Z,32.82
2017-04-29T03:03:32.611Z,30.02
2017-04-29T03:05:59.439Z,30.88
2017-04-29T03:08:26.231Z,28.24
2017-04-29T03:10:53.098Z,29.00
2017-04-29T03:13:19.883Z,30.90
2017-04-29T03:15:46.704Z,27.64
2017-04-29T03:18:13.491Z,25.72
2017-04-29T03:20:40.336Z,28.34
2017-04-29T03:23:07.122Z,31.66
2017-04-29T03:25:33.942Z,28.72
2017-04-29T03:28:00.771Z,30.72
2017-04-29T03:30:27.568Z,27.46
2017-04-29T03:32:54.428Z,26.98
2017-04-29T03:35:21.270Z,28.96
2017-04-29T03:37:48.046Z,30.26
2017-04-29T03:40:14.883Z,27.38
2017-04-29T03:42:41.668Z,27.56
2017-04-29T03:45:08.443Z,27.18
2017-04-29T03:47:36.043Z,30.32
2017-04-29T03:50:02.838Z,31.04
2017-04-29T03:52:29.687Z,29.80
2017-04-29T03:54:56.479Z,27.76
2017-04-29T03:57:24.063Z,29.48
2017-04-29T03:59:50.869Z,26.50
2017-04-29T04:02:17.707Z,29.76
2017-04-29T04:04:44.531Z,32.60
2017-04-29T04:07:11.347Z,29.90
2017-04-29T04:09:38.902Z,28.28
2017-04-29T04:12:05.676Z,28.74
2017-04-29T04:14:32.504Z,28.24
2017-04-29T04:16:59.295Z,30.92
2017-04-29T04:19:26.097Z,33.50
2017-04-29T04:21:53.662Z,29.62
2017-04-29T04:24:20.442Z,30.06
2017-04-29T04:26:47.272Z,29.56
2017-04-29T04:29:14.052Z,29.62
2017-04-29T04:31:40.876Z,29.02
2017-04-29T04:34:07.666Z,28.20
2017-04-29T04:36:35.234Z,29.32
2017-04-29T04:39:02.008Z,29.62
2017-04-29T04:41:28.898Z,29.22
2017-04-29T04:43:55.707Z,31.44
2017-04-29T04:46:23.251Z,30.62
2017-04-29T04:48:50.855Z,31.92
2017-04-29T04:51:17.639Z,29.14
2017-04-29T04:53:44.459Z,29.78
2017-04-29T04:56:12.087Z,32.46
2017-04-29T04:58:38.908Z,31.76
2017-04-29T05:01:05.732Z,30.30
2017-04-29T05:03:32.547Z,31.78
2017-04-29T05:05:59.398Z,31.42
2017-04-29T05:08:26.240Z,30.82
2017-04-29T05:10:54.035Z,31.06
2017-04-29T05:13:20.816Z,29.14
2017-04-29T05:15:48.401Z,32.70
2017-04-29T05:18:15.187Z,30.40
2017-04-29T05:20:42.006Z,30.58
2017-04-29T05:23:08.794Z,31.84
2017-04-29T05:25:35.639Z,32.32
2017-04-29T05:28:02.422Z,32.48
2017-04-29T05:30:29.286Z,32.60
2017-04-29T05:32:56.095Z,33.46
2017-04-29T05:35:22.930Z,33.86
2017-04-29T05:37:49.743Z,30.98
2017-04-29T05:40:16.554Z,32.02
2017-04-29T05:42:43.340Z,30.98
2017-04-29T05:45:10.182Z,33.96
2017-04-29T05:47:36.960Z,32.20
2017-04-29T05:50:03.819Z,32.30
2017-04-29T05:52:30.643Z,34.26
2017-04-29T05:54:57.491Z,31.20
2017-04-29T05:57:24.309Z,32.72
2017-04-29T05:59:51.129Z,30.82
2017-04-29T06:02:17.911Z,33.54
2017-04-29T06:04:44.748Z,29.16
2017-04-29T06:07:11.540Z,30.76
2017-04-29T06:09:39.103Z,30.02
2017-04-29T06:12:05.888Z,31.00
2017-04-29T06:14:32.722Z,31.70
2017-04-29T06:16:59.499Z,34.22
2017-04-29T06:19:26.349Z,34.04
2017-04-29T06:21:53.164Z,32.60
2017-04-29T06:24:19.948Z,34.16
2017-04-29T06:26:47.507Z,32.86
2017-04-29T06:29:15.058Z,30.18
2017-04-29T06:31:42.612Z,32.00
2017-04-29T06:34:09.431Z,28.72
2017-04-29T06:36:36.260Z,31.64
2017-04-29T06:39:03.081Z,29.30
2017-04-29T06:41:29.884Z,29.58
2017-04-29T06:43:56.711Z,29.82
2017-04-29T06:46:23.506Z,30.42
2017-04-29T06:48:50.375Z,31.74
2017-04-29T06:51:17.158Z,28.60
2017-04-29T06:53:43.991Z,31.58
2017-04-29T06:56:10.783Z,31.22
2017-04-29T06:58:37.678Z,31.08
2017-04-29T07:01:04.463Z,34.04
2017-04-29T07:03:31.243Z,31.30
2017-04-29T07:05:58.848Z,31.66
2017-04-29T07:08:25.647Z,33.54
2017-04-29T07:10:52.440Z,34.58
2017-04-29T07:13:19.290Z,30.04
2017-04-29T07:15:46.814Z,34.84
2017-04-29T07:18:13.595Z,33.44
2017-04-29T07:20:40.422Z,30.46
2017-04-29T07:23:07.242Z,29.34
2017-04-29T07:25:34.056Z,29.62
2017-04-29T07:28:00.878Z,29.54
2017-04-29T07:30:27.728Z,31.04
2017-04-29T07:32:54.523Z,32.72
2017-04-29T07:35:22.105Z,32.98
2017-04-29T07:37:48.888Z,37.10
2017-04-29T07:40:16.398Z,38.62
2017-04-29T07:42:43.257Z,37.70
2017-04-29T07:45:10.042Z,37.62
2017-04-29T07:47:36.831Z,39.06
2017-04-29T07:50:03.664Z,38.56
2017-04-29T07:52:30.455Z,38.20
2017-04-29T07:54:57.355Z,35.94
2017-04-29T07:57:24.160Z,38.52
2017-04-29T07:59:50.954Z,33.94
2017-04-29T08:02:17.776Z,30.40
2017-04-29T08:04:45.303Z,26.50
2017-04-29T08:07:12.155Z,22.48
2017-04-29T08:09:39.675Z,20.20
2017-04-29T08:12:06.454Z,21.44
2017-04-29T08:14:33.278Z,18.58
2017-04-29T08:17:00.071Z,18.34
2017-04-29T08:19:26.910Z,17.44
2017-04-29T08:21:54.447Z,16.40
2017-04-29T08:24:21.239Z,17.10
2017-04-29T08:26:48.055Z,15.90
2017-04-29T08:29:14.851Z,13.24
2017-04-29T08:31:42.415Z,15.40
2017-04-29T08:34:09.264Z,14.78
2017-04-29T08:36:36.098Z,13.96
2017-04-29T08:39:02.915Z,15.54
2017-04-29T08:41:29.722Z,13.82
2017-04-29T08:43:56.581Z,13.52
2017-04-29T08:46:23.457Z,12.12
2017-04-29T08:48:51.027Z,12.04
2017-04-29T08:51:17.858Z,10.60
2017-04-29T08:53:44.630Z,11.46
2017-04-29T08:56:11.419Z,9.72
2017-04-29T08:58:38.243Z,10.24
2017-04-29T09:01:05.022Z,9.68
2017-04-29T09:03:31.836Z,9.80
2017-04-29T09:05:58.642Z,9.28
2017-04-29T09:08:25.522Z,7.64
2017-04-29T09:10:53.055Z,8.38
2017-04-29T09:13:19.836Z,8.72
2017-04-29T09:15:46.658Z,9.12
2017-04-29T09:18:13.495Z,9.00
2017-04-29T09:20:40.315Z,9.50
2017-04-29T09:23:07.108Z,9.08
2017-04-29T09:25:34.691Z,10.82
2017-04-29T09:28:01.575Z,9.28
2017-04-29T09:30:29.147Z,16.76
2017-04-29T09:32:55.959Z,19.08
2017-04-29T09:35:22.787Z,16.04
2017-04-29T09:37:50.319Z,14.60
2017-04-29T09:40:17.167Z,16.74
2017-04-29T09:42:44.700Z,19.32
2017-04-29T09:45:12.235Z,19.30
2017-04-29T09:47:39.050Z,20.74
2017-04-29T09:50:05.879Z,19.38
2017-04-29T09:52:32.691Z,19.26
2017-04-29T09:54:59.500Z,19.62
2017-04-29T09:57:26.361Z,20.30
2017-04-29T09:59:53.347Z,18.08
2017-04-29T10:02:20.176Z,17.38
2017-04-29T10:04:46.956Z,16.66
2017-04-29T10:07:13.771Z,16.22
2017-04-29T10:09:40.551Z,16.98
2017-04-29T10:12:07.438Z,17.10
2017-04-29T10:14:34.222Z,18.60
2017-04-29T10:17:01.001Z,17.28
2017-04-29T10:19:27.859Z,18.40
2017-04-29T10:21:54.670Z,18.38
2017-04-29T10:24:22.188Z,18.16
2017-04-29T10:26:49.011Z,16.06
2017-04-29T10:29:15.806Z,15.58
2017-04-29T10:31:42.627Z,18.34
2017-04-29T10:34:09.411Z,17.48
2017-04-29T10:36:36.199Z,19.44
2017-04-29T10:39:03.006Z,18.24
2017-04-29T10:41:29.819Z,18.54
2017-04-29T10:43:57.380Z,18.48
2017-04-29T10:46:24.262Z,19.48
2017-04-29T10:48:51.466Z,19.52
2017-04-29T10:51:18.317Z,17.62
2017-04-29T10:53:45.095Z,16.78
2017-04-29T10:56:11.918Z,17.82
2017-04-29T10:58:38.699Z,17.10
2017-04-29T11:01:05.511Z,18.12
2017-04-29T11:03:32.359Z,17.80
2017-04-29T11:05:59.159Z,18.56
2017-04-29T11:08:25.981Z,17.54
2017-04-29T11:10:52.846Z,18.26
2017-04-29T11:13:19.634Z,18.94
2017-04-29T11:15:46.415Z,18.72
2017-04-29T11:18:13.235Z,18.64
2017-04-29T11:20:40.016Z,19.24
2017-04-29T11:23:06.839Z,15.86
2017-04-29T11:25:33.631Z,16.20
2017-04-29T11:28:01.195Z,15.56
2017-04-29T11:30:28.011Z,17.42
2017-04-29T11:32:55.550Z,15.52
2017-04-29T11:35:23.134Z,11.96
2017-04-29T11:37:49.928Z,12.56
2017-04-29T11:40:17.491Z,10.66
2017-04-29T11:42:44.269Z,10.02
2017-04-29T11:45:11.087Z,10.42
2017-04-29T11:47:37.892Z,9.36
2017-04-29T11:50:04.863Z,10.98
2017-04-29T11:52:31.639Z,9.84
2017-04-29T11:54:58.479Z,11.86
2017-04-29T11:57:25.347Z,11.86
2017-04-29T11:59:52.180Z,11.66
2017-04-29T12:02:18.975Z,13.02
2017-04-29T12:04:45.763Z,10.70
2017-04-29T12:07:12.595Z,11.94
2017-04-29T12:09:39.377Z,11.56
2017-04-29T12:12:06.203Z,10.96
2017-04-29T12:14:33.031Z,10.52
2017-04-29T12:16:59.887Z,10.68
2017-04-29T12:19:27.438Z,11.56
2017-04-29T12:21:55.019Z,11.68
2017-04-29T12:24:21.861Z,12.10
2017-04-29T12:26:48.695Z,12.98
2017-04-29T12:29:15.475Z,11.74
2017-04-29T12:31:49.983Z,12.22
2017-04-29T12:34:17.554Z,12.24
2017-04-29T12:36:44.330Z,13.62
2017-04-29T12:39:11.124Z,12.14
2017-04-29T12:41:37.934Z,12.56
2017-04-29T12:44:04.712Z,12.32
2017-04-29T12:46:31.607Z,11.74
2017-04-29T12:48:58.438Z,10.94
2017-04-29T12:51:25.323Z,11.40
2017-04-29T12:53:52.862Z,10.66
2017-04-29T12:56:20.418Z,10.14
2017-04-29T12:58:47.940Z,9.90
2017-04-29T13:01:14.746Z,10.18
2017-04-29T13:03:41.515Z,9.94
2017-04-29T13:06:09.106Z,9.04
2017-04-29T13:08:35.878Z,9.26
2017-04-29T13:11:03.404Z,9.12
2017-04-29T13:13:30.252Z,9.00
2017-04-29T13:15:57.817Z,9.34
2017-04-29T13:18:24.674Z,9.78
2017-04-29T13:20:51.446Z,9.86
2017-04-29T13:23:19.344Z,9.34
2017-04-29T13:25:46.157Z,9.70
2017-04-29T13:28:12.963Z,11.02
2017-04-29T13:30:46.610Z,10.10
2017-04-29T13:33:13.431Z,9.86
2017-04-29T13:35:40.203Z,10.32
2017-04-29T13:38:07.783Z,10.02
2017-04-29T13:40:34.554Z,11.96
2017-04-29T13:43:01.359Z,11.30
2017-04-29T13:45:28.219Z,10.04
2017-04-29T13:47:55.859Z,9.84
2017-04-29T13:50:22.681Z,9.40
2017-04-29T13:52:49.467Z,12.22
2017-04-29T13:55:16.291Z,11.66
2017-04-29T13:57:43.079Z,12.22
2017-04-29T14:00:09.890Z,11.94
2017-04-29T14:02:36.787Z,12.80
2017-04-29T14:05:03.608Z,11.88
2017-04-29T14:07:30.390Z,12.64
2017-04-29T14:09:57.630Z,12.24
2017-04-29T14:12:25.226Z,13.06
2017-04-29T14:14:52.063Z,11.12
2017-04-29T14:17:18.845Z,12.96
2017-04-29T14:19:46.443Z,12.26
2017-04-29T14:22:13.273Z,10.94
2017-04-29T14:24:40.059Z,12.96
2017-04-29T14:27:06.837Z,11.94
2017-04-29T14:29:33.650Z,11.84
2017-04-29T14:32:00.451Z,12.72
2017-04-29T14:34:27.309Z,12.40
2017-04-29T14:36:54.108Z,13.00
2017-04-29T14:39:20.887Z,10.98
2017-04-29T14:41:47.704Z,11.78
2017-04-29T14:44:14.499Z,10.58
2017-04-29T14:46:41.323Z,11.62
2017-04-29T14:49:08.158Z,12.28
2017-04-29T14:51:34.971Z,12.82
2017-04-29T14:54:01.801Z,11.72
2017-04-29T14:56:28.582Z,11.84
2017-04-29T14:58:55.501Z,9.62
2017-04-29T15:01:22.328Z,10.62
2017-04-29T15:03:49.155Z,10.16
2017-04-29T15:06:16.018Z,10.22
2017-04-29T15:08:43.548Z,10.66
2017-04-29T15:11:10.326Z,9.16
2017-04-29T15:13:37.139Z,9.86
2017-04-29T15:16:03.916Z,9.34
2017-04-29T15:18:30.739Z,8.36
2017-04-29T15:20:57.531Z,9.70
2017-04-29T15:23:24.542Z,8.04
2017-04-29T15:25:51.414Z,9.54
2017-04-29T15:28:25.135Z,9.90
2017-04-29T15:30:51.947Z,9.94
2017-04-29T15:33:18.724Z,8.18
2017-04-29T15:35:45.539Z,9.14
2017-04-29T15:38:12.331Z,8.90
2017-04-29T15:40:39.179Z,9.40
2017-04-29T15:43:05.958Z,8.86
2017-04-29T15:45:32.731Z,7.92
2017-04-29T15:47:59.567Z,7.62
2017-04-29T15:50:27.171Z,7.92
2017-04-29T15:52:54.006Z,7.78
2017-04-29T15:55:20.782Z,7.26
2017-04-29T15:57:48.340Z,8.28
2017-04-29T16:00:15.127Z,7.32
2017-04-29T16:02:41.960Z,6.92
2017-04-29T16:05:08.743Z,8.00
2017-04-29T16:07:35.528Z,8.50
2017-04-29T16:10:03.089Z,8.24
2017-04-29T16:12:29.883Z,7.62
2017-04-29T16:14:56.676Z,7.52
2017-04-29T16:17:23.525Z,7.50
2017-04-29T16:19:50.324Z,7.32
2017-04-29T16:22:17.139Z,8.16
2017-04-29T16:24:43.924Z,7.78
2017-04-29T16:27:10.754Z,7.92
2017-04-29T16:29:37.543Z,8.48
2017-04-29T16:32:04.365Z,7.72
2017-04-29T16:34:31.186Z,7.88
2017-04-29T16:36:57.992Z,7.22
2017-04-29T16:39:24.838Z,7.72
2017-04-29T16:41:51.606Z,6.76
2017-04-29T16:44:18.423Z,8.30
2017-04-29T16:46:45.207Z,7.80
2017-04-29T16:49:12.044Z,7.02
2017-04-29T16:51:38.854Z,7.52
2017-04-29T16:54:06.375Z,7.36
2017-04-29T16:56:33.191Z,7.06
2017-04-29T16:58:59.976Z,7.74
2017-04-29T17:01:26.819Z,8.86
2017-04-29T17:03:53.686Z,7.32
2017-04-29T17:06:20.462Z,8.00
2017-04-29T17:08:47.291Z,7.98
2017-04-29T17:11:14.091Z,7.48
2017-04-29T17:13:41.614Z,8.74
2017-04-29T17:16:08.433Z,8.92
2017-04-29T17:18:35.251Z,8.68
2017-04-29T17:21:02.076Z,8.28
2017-04-29T17:23:28.909Z,9.34
2017-04-29T17:25:55.806Z,8.10
2017-04-29T17:28:22.588Z,8.50
2017-04-29T17:30:49.366Z,8.24
2017-04-29T17:33:16.195Z,7.80
2017-04-29T17:35:42.979Z,8.64
2017-04-29T17:38:10.509Z,7.42
2017-04-29T17:40:37.353Z,7.76
2017-04-29T17:43:04.876Z,7.62
2017-04-29T17:45:31.661Z,7.80
2017-04-29T17:47:58.540Z,8.26
2017-04-29T17:50:25.422Z,7.80
2017-04-29T17:52:52.219Z,7.16
2017-04-29T17:55:19.068Z,7.40
2017-04-29T17:57:45.855Z,7.78
2017-04-29T18:00:12.675Z,7.16
2017-04-29T18:02:39.455Z,7.20
2017-04-29T18:05:06.299Z,7.90
2017-04-29T18:07:33.116Z,8.74
2017-04-29T18:09:59.912Z,7.76
2017-04-29T18:12:26.771Z,8.64
2017-04-29T18:14:53.566Z,13.12
2017-04-29T18:17:20.391Z,9.44
2017-04-29T18:19:47.943Z,9.26
2017-04-29T18:22:15.502Z,7.60
2017-04-29T18:24:42.281Z,7.70
2017-04-29T18:27:09.111Z,8.30
2017-04-29T18:29:35.890Z,8.20
2017-04-29T18:32:02.677Z,9.68
2017-04-29T18:34:30.330Z,9.00
2017-04-29T18:36:57.876Z,8.22
2017-04-29T18:39:25.459Z,8.72
2017-04-29T18:41:52.274Z,8.92
2017-04-29T18:44:19.051Z,9.12
2017-04-29T18:46:45.870Z,9.48
2017-04-29T18:49:12.642Z,10.14
2017-04-29T18:51:40.246Z,10.62
2017-04-29T18:54:07.032Z,11.88
2017-04-29T18:56:33.823Z,34.30
2017-04-29T18:59:00.651Z,23.96
2017-04-29T19:01:30.441Z,20.70
2017-04-29T19:03:57.248Z,20.56
2017-04-29T19:06:24.112Z,12.76
2017-04-29T19:08:51.714Z,14.06
2017-04-29T19:11:18.495Z,12.98
2017-04-29T19:13:46.024Z,15.68
2017-04-29T19:16:12.842Z,17.20
2017-04-29T19:18:39.623Z,17.06
2017-04-29T19:21:06.433Z,19.20
2017-04-29T19:23:33.256Z,23.70
2017-04-29T19:26:00.091Z,19.96
2017-04-29T19:28:27.024Z,20.44
2017-04-29T19:30:53.852Z,18.98
2017-04-29T19:33:20.639Z,16.60
2017-04-29T19:35:47.459Z,13.90
2017-04-29T19:38:14.295Z,13.74
2017-04-29T19:40:41.074Z,21.60
2017-04-29T19:43:14.775Z,15.22
2017-04-29T19:45:41.556Z,15.30
2017-04-29T19:48:09.127Z,15.20
2017-04-29T19:50:35.954Z,10.44
2017-04-29T19:53:02.759Z,11.04
2017-04-29T19:55:30.344Z,10.20
2017-04-29T19:57:57.183Z,11.08
2017-04-29T20:00:24.940Z,11.36
2017-04-29T20:02:51.772Z,12.60
2017-04-29T20:05:18.595Z,15.96
2017-04-29T20:07:45.366Z,18.06
2017-04-29T20:10:12.910Z,17.12
2017-04-29T20:12:40.464Z,16.34
2017-04-29T20:15:08.027Z,13.40
2017-04-29T20:17:34.864Z,13.92
2017-04-29T20:20:01.694Z,14.10
2017-04-29T20:22:28.507Z,11.22
2017-04-29T20:24:55.415Z,11.40
2017-04-29T20:27:22.944Z,12.46
2017-04-29T20:29:49.758Z,13.10
2017-04-29T20:32:16.550Z,11.88
2017-04-29T20:34:43.367Z,10.76
2017-04-29T20:37:10.139Z,12.84
2017-04-29T20:39:36.980Z,12.70
2017-04-29T20:42:03.804Z,13.74
2017-04-29T20:44:30.590Z,11.92
2017-04-29T20:46:57.420Z,12.42
2017-04-29T20:49:24.211Z,12.00
2017-04-29T20:51:51.083Z,13.66
2017-04-29T20:54:17.868Z,13.58
2017-04-29T20:56:45.459Z,13.46
2017-04-29T20:59:12.235Z,13.76
2017-04-29T21:01:39.755Z,13.70
2017-04-29T21:04:06.589Z,13.34
2017-04-29T21:06:33.367Z,14.32
2017-04-29T21:09:00.147Z,15.20
2017-04-29T21:11:27.086Z,15.46
2017-04-29T21:13:54.082Z,16.10
2017-04-29T21:16:20.863Z,15.20
2017-04-29T21:18:48.386Z,15.06
2017-04-29T21:21:15.223Z,16.82
2017-04-29T21:23:42.760Z,16.14
2017-04-29T21:26:09.537Z,17.38
2017-04-29T21:28:36.372Z,17.94
2017-04-29T21:31:03.155Z,19.06
2017-04-29T21:33:30.734Z,19.62
2017-04-29T21:35:57.583Z,18.84
2017-04-29T21:38:24.391Z,18.52
2017-04-29T21:40:51.171Z,18.78
2017-04-29T21:43:18.747Z,17.36
2017-04-29T21:45:45.536Z,16.72
2017-04-29T21:48:12.354Z,17.44
2017-04-29T21:50:39.425Z,17.78
2017-04-29T21:53:07.018Z,15.62
2017-04-29T21:55:33.802Z,14.96
2017-04-29T21:58:00.679Z,15.62
2017-04-29T22:00:27.491Z,13.36
2017-04-29T22:02:54.451Z,15.78
2017-04-29T22:05:21.228Z,15.50
2017-04-29T22:07:48.046Z,15.98
2017-04-29T22:10:14.858Z,15.72
2017-04-29T22:12:42.428Z,16.86
2017-04-29T22:15:09.248Z,19.36
2017-04-29T22:17:36.779Z,20.76
2017-04-29T22:20:04.295Z,20.12
2017-04-29T22:22:31.116Z,23.28
2017-04-29T22:24:57.950Z,22.48
2017-04-29T22:27:24.797Z,21.72
2017-04-29T22:29:51.614Z,22.46
2017-04-29T22:32:18.458Z,21.20
2017-04-29T22:34:45.237Z,19.80
2017-04-29T22:37:12.015Z,20.02
2017-04-29T22:39:39.579Z,19.86
2017-04-29T22:42:06.359Z,19.74
2017-04-29T22:44:33.171Z,19.14
2017-04-29T22:46:59.956Z,17.36
2017-04-29T22:49:27.518Z,16.66
2017-04-29T22:51:54.343Z,18.08
2017-04-29T22:54:21.150Z,17.18
2017-04-29T22:56:48.675Z,18.40
2017-04-29T22:59:15.487Z,16.70
2017-04-29T23:01:42.298Z,17.68
2017-04-29T23:04:09.144Z,17.18
2017-04-29T23:06:35.964Z,19.94
2017-04-29T23:09:02.760Z,19.38
2017-04-29T23:11:29.543Z,19.14
2017-04-29T23:13:56.399Z,17.70
2017-04-29T23:16:23.243Z,18.22
2017-04-29T23:18:50.038Z,19.42
2017-04-29T23:21:17.685Z,17.32
2017-04-29T23:23:45.246Z,17.10
2017-04-29T23:26:12.767Z,18.36
2017-04-29T23:28:39.579Z,17.76
2017-04-29T23:31:06.351Z,17.26
2017-04-29T23:33:33.178Z,18.16
2017-04-29T23:36:00.047Z,17.44
2017-04-29T23:38:26.863Z,16.98
2017-04-29T23:40:53.639Z,15.62
2017-04-29T23:43:20.463Z,16.42
2017-04-29T23:45:47.242Z,16.38
2017-04-29T23:48:14.063Z,14.66
2017-04-29T23:50:40.847Z,14.74
2017-04-29T23:53:08.475Z,16.66
2017-04-29T23:55:35.256Z,19.42
2017-04-29T23:58:02.027Z,17.16
